Time;durP1;ratioP1;P1;durP2;ratioP2;P2;SDS_P1;SDS_P2;PMS_P1;PMS_P2;Temp;Humidity;BMP_temperature;BMP_pressure;BME280_temperature;BME280_humidity;BME280_pressure;Samples;Min_cycle;Max_cycle;Signal;HPM_P1;HPM_P2
2022/11/30 00:00:52;;;;;;;38.25;18.55;;;3.10;99.90;;;;;;5055665;28;20067;-84
2022/11/30 00:03:17;;;;;;;40.28;20.33;;;3.10;99.90;;;;;;5045942;28;20041;-83
2022/11/30 00:05:43;;;;;;;37.72;19.88;;;3.10;99.90;;;;;;5028652;28;20053;-83
2022/11/30 00:08:08;;;;;;;39.75;20.38;;;3.10;99.90;;;;;;5047454;28;20029;-82
2022/11/30 00:10:36;;;;;;;42.80;19.85;;;3.10;99.90;;;;;;5045748;28;20097;-81
2022/11/30 00:13:02;;;;;;;35.08;20.60;;;3.00;99.90;;;;;;5044957;28;20033;-82
2022/11/30 00:15:27;;;;;;;36.65;18.25;;;3.00;99.90;;;;;;5045262;28;20029;-82
2022/11/30 00:17:56;;;;;;;36.15;18.27;;;3.00;99.90;;;;;;5042726;28;20081;-82
2022/11/30 00:20:22;;;;;;;35.05;18.75;;;3.00;99.90;;;;;;5027392;28;20034;-82
2022/11/30 00:22:48;;;;;;;39.78;20.30;;;3.00;99.90;;;;;;5047052;28;20029;-83
2022/11/30 00:25:14;;;;;;;38.17;19.35;;;3.10;99.90;;;;;;5042926;28;20393;-81
2022/11/30 00:27:42;;;;;;;39.00;20.65;;;3.10;99.90;;;;;;5029773;28;20091;-82
2022/11/30 00:30:08;;;;;;;40.85;20.13;;;3.10;99.90;;;;;;5042878;28;20030;-82
2022/11/30 00:32:34;;;;;;;36.83;20.20;;;3.10;99.90;;;;;;5026340;28;20028;-82
2022/11/30 00:35:00;;;;;;;38.22;19.90;;;3.20;99.90;;;;;;5013672;28;20045;-81
2022/11/30 00:37:25;;;;;;;39.78;21.33;;;3.20;99.90;;;;;;5047676;28;20034;-82
2022/11/30 00:39:51;;;;;;;41.33;20.95;;;3.10;99.90;;;;;;5050098;28;20053;-82
2022/11/30 00:42:17;;;;;;;37.22;20.20;;;3.10;99.90;;;;;;5048253;28;20045;-83
2022/11/30 00:44:42;;;;;;;34.28;19.67;;;3.10;99.90;;;;;;5044435;28;20016;-83
2022/11/30 00:47:08;;;;;;;40.22;19.88;;;3.00;99.90;;;;;;5055402;28;20082;-80
2022/11/30 00:49:34;;;;;;;36.42;19.45;;;3.10;99.90;;;;;;5022178;28;20098;-82
2022/11/30 00:52:00;;;;;;;38.20;18.83;;;3.10;99.90;;;;;;5054160;28;20014;-81
2022/11/30 00:54:26;;;;;;;34.97;18.85;;;3.00;99.90;;;;;;5046263;28;20028;-80
2022/11/30 00:56:53;;;;;;;37.55;19.95;;;3.10;99.90;;;;;;5047286;28;20021;-81
2022/11/30 00:59:19;;;;;;;36.45;20.27;;;3.10;99.90;;;;;;5054934;28;20030;-83
2022/11/30 01:01:44;;;;;;;39.40;20.45;;;3.00;99.90;;;;;;5054807;28;20101;-79
2022/11/30 01:04:10;;;;;;;39.92;21.38;;;3.10;99.90;;;;;;5055026;28;20490;-81
2022/11/30 01:06:36;;;;;;;41.15;21.17;;;3.10;99.90;;;;;;5051954;28;20498;-83
2022/11/30 01:09:02;;;;;;;40.28;21.90;;;3.10;99.90;;;;;;5049636;28;20032;-81
2022/11/30 01:11:29;;;;;;;42.78;20.40;;;3.10;99.90;;;;;;5049016;28;20029;-81
2022/11/30 01:13:57;;;;;;;35.13;19.58;;;3.10;99.90;;;;;;5046022;28;20097;-82
2022/11/30 01:16:29;;;;;;;38.63;21.23;;;3.10;99.90;;;;;;5049343;28;20040;-81
2022/11/30 01:18:55;;;;;;;41.58;21.27;;;3.20;99.90;;;;;;5048291;28;20057;-81
2022/11/30 01:21:23;;;;;;;39.40;21.20;;;3.30;99.90;;;;;;5045673;28;20025;-81
2022/11/30 01:23:49;;;;;;;40.55;21.88;;;3.30;99.90;;;;;;5047152;28;20390;-82
2022/11/30 01:26:16;;;;;;;40.58;21.10;;;3.30;99.90;;;;;;5046385;28;20022;-82
2022/11/30 01:28:48;;;;;;;42.70;22.83;;;3.30;99.90;;;;;;5047942;28;20037;-81
2022/11/30 01:31:14;;;;;;;42.20;22.83;;;3.30;99.90;;;;;;5032247;28;20041;-80
2022/11/30 01:33:41;;;;;;;43.92;22.15;;;3.20;99.90;;;;;;5044119;28;20028;-82
2022/11/30 01:36:15;;;;;;;38.22;21.88;;;3.20;99.90;;;;;;5028071;28;20109;-82
2022/11/30 01:38:47;;;;;;;40.63;21.67;;;3.20;99.90;;;;;;5034403;28;20072;-83
2022/11/30 01:41:16;;;;;;;42.63;22.45;;;3.10;99.90;;;;;;5032239;28;20034;-82
2022/11/30 01:43:43;;;;;;;45.83;24.40;;;3.20;99.90;;;;;;5048188;28;20037;-81
2022/11/30 01:46:35;;;;;;;37.78;21.50;;;3.20;99.90;;;;;;5052345;28;20026;-81
2022/11/30 01:49:13;;;;;;;43.95;23.25;;;3.20;99.90;;;;;;5047619;28;20032;-82
2022/11/30 01:51:47;;;;;;;43.72;21.17;;;3.10;99.90;;;;;;5056814;28;20010;-81
2022/11/30 01:54:17;;;;;;;42.67;23.52;;;3.10;99.90;;;;;;5052687;28;20037;-80
2022/11/30 01:56:47;;;;;;;45.08;24.08;;;3.10;99.90;;;;;;5046343;28;20025;-81
2022/11/30 01:59:14;;;;;;;45.92;23.40;;;3.10;99.90;;;;;;5046148;28;20056;-81
2022/11/30 02:01:40;;;;;;;46.53;23.90;;;3.10;99.90;;;;;;5044983;28;20013;-82
2022/11/30 02:04:14;;;;;;;42.20;23.05;;;3.10;99.90;;;;;;5039313;28;20457;-81
2022/11/30 02:06:40;;;;;;;49.00;24.73;;;3.10;99.90;;;;;;5044277;28;20025;-81
2022/11/30 02:09:06;;;;;;;51.20;25.58;;;3.10;99.90;;;;;;5047032;28;20026;-82
2022/11/30 02:11:32;;;;;;;43.47;22.77;;;3.10;99.90;;;;;;5045322;28;20025;-82
2022/11/30 02:14:35;;;;;;;41.40;21.02;;;3.20;99.90;;;;;;5046416;28;20041;-82
2022/11/30 02:17:10;;;;;;;;;;;3.20;99.90;;;;;;5046122;28;20029;-80
2022/11/30 02:20:26;;;;;;;47.05;24.20;;;3.20;99.90;;;;;;5047891;28;19954;-82
2022/11/30 02:23:05;;;;;;;46.65;24.38;;;3.20;99.90;;;;;;5044548;28;20474;-82
2022/11/30 02:25:45;;;;;;;53.90;26.58;;;3.10;99.90;;;;;;5046062;28;20172;-82
2022/11/30 02:28:49;;;;;;;52.38;24.45;;;3.10;99.90;;;;;;5045951;28;20014;-82
2022/11/30 02:31:22;;;;;;;56.53;26.58;;;3.10;99.90;;;;;;5005861;28;20162;-81
2022/11/30 02:33:50;;;;;;;54.03;25.48;;;3.10;99.90;;;;;;5040073;28;20229;-83
2022/11/30 02:36:16;;;;;;;52.97;26.83;;;3.10;99.90;;;;;;5042006;28;20520;-82
2022/11/30 02:38:42;;;;;;;57.40;27.02;;;3.00;99.90;;;;;;5044707;28;20029;-82
2022/11/30 02:41:08;;;;;;;48.17;25.38;;;3.00;99.90;;;;;;5032038;28;20410;-81
2022/11/30 02:43:34;;;;;;;50.63;25.73;;;3.10;99.90;;;;;;5045150;28;20095;-82
2022/11/30 02:46:09;;;;;;;51.03;25.52;;;3.10;99.90;;;;;;5044033;28;20034;-82
2022/11/30 02:48:46;;;;;;;54.30;25.67;;;3.10;99.90;;;;;;5035656;28;20022;-82
2022/11/30 02:51:20;;;;;;;50.28;25.85;;;3.10;99.90;;;;;;5044670;28;20021;-82
2022/11/30 02:53:49;;;;;;;48.65;24.55;;;3.10;99.90;;;;;;5044638;28;20460;-82
2022/11/30 02:56:17;;;;;;;44.42;23.15;;;3.10;99.90;;;;;;5044448;28;20032;-81
2022/11/30 02:58:43;;;;;;;46.58;23.55;;;3.10;99.90;;;;;;5043979;28;20017;-82
2022/11/30 03:01:08;;;;;;;39.38;21.08;;;3.10;99.90;;;;;;5043256;28;20040;-82
2022/11/30 03:03:34;;;;;;;37.92;20.02;;;3.10;99.90;;;;;;5040470;28;20133;-83
2022/11/30 03:06:00;;;;;;;44.42;21.63;;;3.10;99.90;;;;;;5043767;28;20032;-82
2022/11/30 03:08:25;;;;;;;38.63;20.30;;;3.10;99.90;;;;;;5042120;28;20406;-81
2022/11/30 03:10:51;;;;;;;41.47;19.88;;;3.10;99.90;;;;;;5044105;28;20127;-83
2022/11/30 03:13:17;;;;;;;40.15;19.90;;;3.10;99.90;;;;;;5029133;28;20017;-82
2022/11/30 03:15:42;;;;;;;38.85;19.55;;;3.00;99.90;;;;;;5043060;28;20132;-82
2022/11/30 03:18:08;;;;;;;39.30;18.42;;;3.10;99.90;;;;;;5044352;28;20081;-81
2022/11/30 03:20:34;;;;;;;39.08;19.65;;;3.10;99.90;;;;;;5044492;28;20025;-82
2022/11/30 03:23:01;;;;;;;44.00;21.25;;;3.10;99.90;;;;;;5043903;28;20358;-81
2022/11/30 03:25:27;;;;;;;42.15;21.45;;;3.00;99.90;;;;;;5042960;28;20031;-82
2022/11/30 03:27:52;;;;;;;39.88;21.63;;;3.00;99.90;;;;;;5044987;28;20051;-83
2022/11/30 03:30:18;;;;;;;49.13;23.15;;;3.00;99.90;;;;;;5044080;28;20037;-83
2022/11/30 03:32:44;;;;;;;45.55;23.98;;;3.00;99.90;;;;;;5044813;28;20147;-82
2022/11/30 03:35:10;;;;;;;48.05;22.27;;;3.00;99.90;;;;;;5039449;28;20025;-82
2022/11/30 03:37:36;;;;;;;45.90;22.63;;;3.00;99.90;;;;;;5027335;28;20044;-81
2022/11/30 03:40:02;;;;;;;47.08;23.88;;;3.00;99.90;;;;;;5044315;28;20568;-81
2022/11/30 03:42:27;;;;;;;44.08;23.30;;;3.00;99.90;;;;;;5043450;28;20095;-82
2022/11/30 03:44:53;;;;;;;40.45;19.63;;;3.00;99.90;;;;;;5038589;28;20010;-82
2022/11/30 03:47:19;;;;;;;46.45;22.13;;;2.90;99.90;;;;;;5040678;28;20029;-82
2022/11/30 03:49:44;;;;;;;45.75;22.83;;;3.00;99.90;;;;;;5053715;28;20014;-82
2022/11/30 03:52:10;;;;;;;45.72;22.58;;;3.00;99.90;;;;;;5042058;28;20025;-81
2022/11/30 03:54:35;;;;;;;39.08;20.88;;;3.00;99.90;;;;;;5046852;28;20029;-82
2022/11/30 03:57:01;;;;;;;45.00;22.67;;;3.00;99.90;;;;;;5045925;28;20022;-82
2022/11/30 03:59:26;;;;;;;46.75;23.23;;;3.00;99.90;;;;;;5044611;28;20021;-80
2022/11/30 04:01:52;;;;;;;41.20;20.60;;;3.00;99.90;;;;;;5044436;28;20030;-82
2022/11/30 04:04:18;;;;;;;45.78;23.25;;;2.90;99.90;;;;;;5045088;28;20065;-82
2022/11/30 04:06:43;;;;;;;44.25;22.13;;;3.00;99.90;;;;;;5024468;28;20141;-82
2022/11/30 04:09:09;;;;;;;51.38;24.88;;;3.00;99.90;;;;;;5007386;28;20029;-82
2022/11/30 04:11:35;;;;;;;45.15;22.33;;;2.90;99.90;;;;;;5042696;28;20044;-82
2022/11/30 04:14:01;;;;;;;46.03;23.10;;;2.90;99.90;;;;;;5049441;28;20077;-82
2022/11/30 04:16:26;;;;;;;47.63;23.08;;;2.90;99.90;;;;;;5046280;28;20029;-79
2022/11/30 04:18:52;;;;;;;40.45;22.20;;;2.90;99.90;;;;;;5046283;28;20105;-80
2022/11/30 04:21:20;;;;;;;48.88;23.92;;;2.90;99.90;;;;;;5047741;28;20045;-78
2022/11/30 04:23:46;;;;;;;38.63;22.60;;;2.80;99.90;;;;;;5043269;28;20018;-79
2022/11/30 04:26:13;;;;;;;45.05;21.73;;;2.90;99.90;;;;;;5048086;28;20079;-78
2022/11/30 04:28:40;;;;;;;45.72;22.73;;;2.90;99.90;;;;;;5046834;28;20613;-76
2022/11/30 04:31:06;;;;;;;44.85;22.33;;;2.90;99.90;;;;;;5047251;28;20459;-78
2022/11/30 04:33:32;;;;;;;42.80;20.83;;;2.90;99.90;;;;;;5035350;28;20132;-77
2022/11/30 04:36:00;;;;;;;42.20;21.35;;;2.90;99.90;;;;;;5045810;28;20137;-76
2022/11/30 04:38:26;;;;;;;43.20;20.17;;;2.90;99.90;;;;;;5047614;28;20029;-76
2022/11/30 04:40:53;;;;;;;40.22;20.20;;;2.90;99.90;;;;;;5046186;28;20025;-78
2022/11/30 04:43:19;;;;;;;38.53;20.60;;;2.90;99.90;;;;;;5051264;28;20016;-79
2022/11/30 04:45:46;;;;;;;41.65;20.30;;;2.90;99.90;;;;;;5045328;28;20034;-78
2022/11/30 04:48:13;;;;;;;46.70;21.25;;;2.90;99.90;;;;;;5048605;28;20057;-78
2022/11/30 04:50:38;;;;;;;47.33;21.63;;;2.90;99.90;;;;;;5047151;28;20116;-76
2022/11/30 04:53:04;;;;;;;43.95;21.05;;;3.00;99.90;;;;;;5044501;28;20033;-79
2022/11/30 04:55:33;;;;;;;38.97;21.20;;;3.00;99.90;;;;;;5043441;28;20033;-78
2022/11/30 04:57:58;;;;;;;39.42;20.50;;;3.00;99.90;;;;;;5043877;28;20049;-77
2022/11/30 05:00:24;;;;;;;40.63;21.25;;;2.90;99.90;;;;;;5045709;28;20025;-77
2022/11/30 05:02:50;;;;;;;39.53;20.70;;;3.00;99.90;;;;;;5045685;28;20034;-78
2022/11/30 05:05:15;;;;;;;37.17;20.25;;;2.90;99.90;;;;;;5035401;28;20045;-77
2022/11/30 05:07:41;;;;;;;43.72;21.67;;;3.00;99.90;;;;;;5056830;28;20038;-76
2022/11/30 05:10:08;;;;;;;45.25;21.02;;;3.00;99.90;;;;;;5057662;28;20030;-78
2022/11/30 05:12:34;;;;;;;42.20;21.77;;;3.00;99.90;;;;;;5058289;28;20061;-76
2022/11/30 05:15:00;;;;;;;40.72;20.85;;;2.90;99.90;;;;;;5042242;28;20025;-78
2022/11/30 05:17:26;;;;;;;37.95;20.00;;;3.00;99.90;;;;;;5038212;28;20079;-76
2022/11/30 05:19:51;;;;;;;38.00;19.27;;;3.00;99.90;;;;;;5039607;28;20107;-79
2022/11/30 05:22:17;;;;;;;42.38;22.25;;;2.90;99.90;;;;;;5040264;28;20025;-80
2022/11/30 05:24:43;;;;;;;38.35;19.77;;;3.00;99.90;;;;;;5038983;28;20021;-78
2022/11/30 05:27:08;;;;;;;35.63;18.98;;;3.00;99.90;;;;;;5037429;28;20536;-77
2022/11/30 05:29:35;;;;;;;38.30;20.33;;;3.00;99.90;;;;;;5039109;28;20022;-79
2022/11/30 05:32:00;;;;;;;40.10;20.75;;;3.00;99.90;;;;;;5035728;28;20025;-77
2022/11/30 05:34:27;;;;;;;40.30;20.67;;;3.00;99.90;;;;;;5041327;28;20029;-79
2022/11/30 05:36:52;;;;;;;35.28;18.27;;;3.00;99.90;;;;;;5046902;28;20022;-79
2022/11/30 05:39:18;;;;;;;39.40;18.17;;;3.00;99.90;;;;;;5043613;28;20042;-80
2022/11/30 05:41:44;;;;;;;40.92;19.60;;;3.10;99.90;;;;;;5043341;28;20072;-78
2022/11/30 05:44:10;;;;;;;36.75;18.95;;;3.10;99.90;;;;;;5030624;28;20044;-79
2022/11/30 05:46:36;;;;;;;36.60;19.17;;;3.10;99.90;;;;;;5042541;28;20027;-80
2022/11/30 05:49:02;;;;;;;36.17;18.65;;;3.10;99.90;;;;;;5052913;28;20032;-77
2022/11/30 05:51:28;;;;;;;39.55;18.42;;;3.10;99.90;;;;;;5050022;28;20033;-79
2022/11/30 05:53:53;;;;;;;36.88;19.20;;;3.10;99.90;;;;;;5039858;28;20010;-79
2022/11/30 05:56:20;;;;;;;34.67;18.58;;;3.10;99.90;;;;;;5040927;28;20048;-77
2022/11/30 05:58:46;;;;;;;37.55;18.70;;;3.20;99.90;;;;;;5041481;28;20029;-79
2022/11/30 06:01:24;;;;;;;30.38;15.95;;;3.10;99.90;;;;;;5039790;28;20044;-78
2022/11/30 06:03:50;;;;;;;30.38;15.88;;;3.20;99.90;;;;;;5037151;28;20017;-76
2022/11/30 06:06:16;;;;;;;30.02;16.15;;;3.30;99.90;;;;;;5041036;28;20022;-79
2022/11/30 06:08:42;;;;;;;28.35;15.25;;;3.30;99.90;;;;;;5040887;28;20021;-79
2022/11/30 06:11:08;;;;;;;24.42;14.55;;;3.30;99.90;;;;;;5043384;28;20053;-79
2022/11/30 06:13:34;;;;;;;29.40;14.95;;;3.30;99.90;;;;;;5041076;28;20101;-78
2022/11/30 06:16:02;;;;;;;26.80;14.23;;;3.40;99.90;;;;;;5039006;28;20037;-78
2022/11/30 06:18:28;;;;;;;29.90;15.50;;;3.40;99.90;;;;;;5035360;28;20030;-78
2022/11/30 06:20:57;;;;;;;32.97;16.65;;;3.40;99.90;;;;;;5042973;28;20077;-78
2022/11/30 06:23:23;;;;;;;34.53;17.83;;;3.30;99.90;;;;;;5040606;28;20021;-80
2022/11/30 06:25:52;;;;;;;30.88;16.13;;;3.30;99.90;;;;;;5043066;28;20036;-83
2022/11/30 06:28:17;;;;;;;29.17;15.48;;;3.30;99.90;;;;;;5044200;28;20029;-78
2022/11/30 06:30:43;;;;;;;29.27;16.20;;;3.30;99.90;;;;;;5044015;28;20068;-80
2022/11/30 06:33:09;;;;;;;28.90;15.30;;;3.40;99.90;;;;;;5038425;28;20029;-79
2022/11/30 06:35:34;;;;;;;31.58;15.32;;;3.50;99.90;;;;;;5035138;28;20048;-80
2022/11/30 06:38:00;;;;;;;30.77;16.83;;;3.50;99.90;;;;;;5039447;28;20467;-79
2022/11/30 06:40:27;;;;;;;29.63;16.55;;;3.50;99.90;;;;;;5038813;28;20459;-80
2022/11/30 06:42:53;;;;;;;29.77;16.23;;;3.50;99.90;;;;;;5040327;28;20009;-79
2022/11/30 06:45:19;;;;;;;25.95;14.80;;;3.50;99.90;;;;;;5037084;28;20091;-79
2022/11/30 06:47:44;;;;;;;29.40;15.95;;;3.50;99.90;;;;;;5039389;28;20025;-78
2022/11/30 06:50:13;;;;;;;27.90;15.48;;;3.50;99.90;;;;;;5040330;28;20446;-77
2022/11/30 06:52:39;;;;;;;25.35;14.85;;;3.50;99.90;;;;;;5039238;28;20029;-79
2022/11/30 06:55:05;;;;;;;25.65;13.55;;;3.50;99.90;;;;;;5033926;28;20088;-79
2022/11/30 06:57:31;;;;;;;25.63;13.68;;;3.50;99.90;;;;;;5039887;28;20098;-78
2022/11/30 06:59:57;;;;;;;22.55;12.95;;;3.60;99.90;;;;;;5036752;28;20151;-80
2022/11/30 07:02:22;;;;;;;23.20;13.43;;;3.60;99.90;;;;;;5028210;28;20362;-80
2022/11/30 07:04:48;;;;;;;29.90;14.80;;;3.50;99.90;;;;;;5026864;28;20014;-80
2022/11/30 07:07:14;;;;;;;26.65;14.50;;;3.50;99.90;;;;;;5036808;28;20017;-80
2022/11/30 07:09:40;;;;;;;28.20;14.73;;;3.50;99.90;;;;;;5038371;28;20049;-80
2022/11/30 07:12:06;;;;;;;22.52;13.75;;;3.50;99.90;;;;;;5038292;28;20036;-80
2022/11/30 07:14:32;;;;;;;29.50;15.75;;;3.50;99.90;;;;;;5040198;28;20029;-80
2022/11/30 07:16:58;;;;;;;27.42;15.52;;;3.50;99.90;;;;;;5039777;28;20040;-80
2022/11/30 07:19:24;;;;;;;27.52;15.20;;;3.50;99.90;;;;;;5039935;28;20037;-80
2022/11/30 07:21:49;;;;;;;27.73;14.75;;;3.40;99.90;;;;;;5023388;28;20120;-78
2022/11/30 07:27:01;;;;;;;25.33;15.30;;;3.40;99.90;;;;;;5041183;28;20071;-78
2022/11/30 07:29:28;;;;;;;28.23;14.20;;;3.40;99.90;;;;;;5044247;28;20033;-79
2022/11/30 07:31:54;;;;;;;29.73;15.68;;;3.50;99.90;;;;;;5045364;28;20111;-78
2022/11/30 07:34:20;;;;;;;28.00;15.63;;;3.50;99.90;;;;;;5018766;28;20030;-77
2022/11/30 07:36:46;;;;;;;27.08;14.60;;;3.50;99.90;;;;;;5043599;28;20080;-79
2022/11/30 07:39:12;;;;;;;30.40;16.90;;;3.60;99.90;;;;;;5040813;28;20033;-80
2022/11/30 07:41:57;;;;;;;24.65;14.18;;;3.60;99.90;;;;;;5039787;28;20422;-82
2022/11/30 07:44:22;;;;;;;23.50;14.10;;;3.60;99.90;;;;;;5031871;28;20382;-80
2022/11/30 07:46:51;;;;;;;34.90;17.38;;;3.70;99.90;;;;;;5038316;28;20026;-79
2022/11/30 07:49:17;;;;;;;30.85;17.52;;;3.80;99.90;;;;;;5047306;28;20014;-79
2022/11/30 07:51:42;;;;;;;33.67;17.33;;;3.70;99.90;;;;;;5050560;28;20043;-79
2022/11/30 07:54:08;;;;;;;35.58;18.80;;;3.70;99.90;;;;;;5037651;28;20025;-79
2022/11/30 07:56:34;;;;;;;34.97;18.73;;;3.70;99.90;;;;;;5019108;28;20029;-79
2022/11/30 07:59:01;;;;;;;26.58;14.85;;;3.70;99.90;;;;;;5038568;28;20035;-78
2022/11/30 08:01:31;;;;;;;32.50;18.17;;;3.80;99.90;;;;;;5033862;28;20030;-79
2022/11/30 08:03:58;;;;;;;36.22;18.83;;;3.90;99.90;;;;;;5036595;28;20028;-78
2022/11/30 08:06:26;;;;;;;34.75;19.20;;;3.90;99.90;;;;;;5032516;28;20025;-78
2022/11/30 08:08:55;;;;;;;35.30;19.05;;;3.90;99.90;;;;;;5038570;28;20114;-79
2022/11/30 08:11:23;;;;;;;32.25;18.60;;;3.90;99.90;;;;;;5036801;28;20022;-79
2022/11/30 08:13:49;;;;;;;33.67;19.10;;;3.80;99.90;;;;;;5018691;28;20053;-80
2022/11/30 08:16:20;;;;;;;32.33;17.83;;;3.80;99.90;;;;;;5037153;28;20028;-81
2022/11/30 08:18:46;;;;;;;35.72;18.17;;;3.80;99.90;;;;;;5036389;28;20109;-79
2022/11/30 08:21:15;;;;;;;31.92;17.42;;;3.80;99.90;;;;;;5039531;28;20048;-78
2022/11/30 08:23:42;;;;;;;33.53;17.25;;;3.90;99.90;;;;;;5037984;28;20140;-78
2022/11/30 08:26:15;;;;;;;34.33;18.55;;;3.90;99.90;;;;;;5030923;28;20024;-79
2022/11/30 08:28:41;;;;;;;;;;;4.00;99.90;;;;;;5037516;28;20030;-79
2022/11/30 08:31:13;;;;;;;31.30;17.55;;;4.00;99.90;;;;;;5020294;28;19936;-79
2022/11/30 08:33:39;;;;;;;32.65;18.08;;;4.10;99.90;;;;;;5038462;28;20512;-79
2022/11/30 08:36:12;;;;;;;32.85;18.15;;;4.20;99.90;;;;;;5037013;28;20033;-79
2022/11/30 08:38:39;;;;;;;30.17;16.65;;;4.20;99.90;;;;;;5019871;28;20029;-79
2022/11/30 08:41:06;;;;;;;27.55;14.95;;;4.20;99.90;;;;;;5039950;28;20103;-78
2022/11/30 08:43:32;;;;;;;27.83;15.43;;;4.40;99.90;;;;;;5040543;28;20061;-79
2022/11/30 08:46:00;;;;;;;33.50;17.60;;;4.40;99.90;;;;;;5037695;28;20025;-79
2022/11/30 08:48:26;;;;;;;29.58;16.08;;;4.40;99.90;;;;;;5019479;28;20022;-79
2022/11/30 08:50:51;;;;;;;28.90;16.27;;;4.30;99.90;;;;;;5023595;28;20036;-78
2022/11/30 08:53:17;;;;;;;32.25;17.80;;;4.20;99.90;;;;;;5037376;28;20380;-79
2022/11/30 08:55:43;;;;;;;35.95;18.90;;;4.20;99.90;;;;;;5020906;28;20108;-79
2022/11/30 08:58:08;;;;;;;34.50;17.88;;;4.10;99.90;;;;;;5038639;28;20025;-79
2022/11/30 09:00:34;;;;;;;29.92;16.00;;;4.00;99.90;;;;;;5044386;28;20033;-80
2022/11/30 09:02:59;;;;;;;31.90;16.67;;;4.00;99.90;;;;;;5041012;28;20033;-78
2022/11/30 09:05:25;;;;;;;39.38;18.10;;;4.10;99.90;;;;;;5041202;28;20018;-80
2022/11/30 09:07:51;;;;;;;30.30;17.15;;;4.10;99.90;;;;;;5040500;28;20029;-80
2022/11/30 09:10:16;;;;;;;34.45;17.98;;;4.10;99.90;;;;;;5023056;28;20028;-80
2022/11/30 09:12:42;;;;;;;31.05;15.95;;;4.20;99.90;;;;;;5041098;28;20486;-79
2022/11/30 09:15:08;;;;;;;27.88;16.45;;;4.30;99.90;;;;;;5023699;28;20042;-79
2022/11/30 09:17:35;;;;;;;31.55;17.50;;;4.30;99.90;;;;;;5040490;28;20576;-79
2022/11/30 09:20:01;;;;;;;28.35;15.63;;;4.30;99.90;;;;;;5040892;28;20053;-80
2022/11/30 09:22:27;;;;;;;31.40;18.67;;;4.40;99.90;;;;;;5040191;28;20037;-79
2022/11/30 09:24:53;;;;;;;25.77;15.57;;;4.40;99.90;;;;;;5022380;28;20026;-80
2022/11/30 09:27:19;;;;;;;28.52;15.90;;;4.50;99.90;;;;;;5040733;28;20018;-79
2022/11/30 09:29:45;;;;;;;36.85;18.48;;;4.60;99.90;;;;;;5041095;28;20025;-80
2022/11/30 09:32:10;;;;;;;36.45;17.90;;;4.60;99.90;;;;;;5039166;28;20053;-81
2022/11/30 09:34:36;;;;;;;33.83;17.55;;;4.60;99.90;;;;;;5041198;28;20034;-80
2022/11/30 09:37:02;;;;;;;32.25;17.55;;;4.60;99.90;;;;;;5022774;28;20049;-80
2022/11/30 09:39:28;;;;;;;31.42;16.42;;;4.60;99.90;;;;;;5005348;28;20030;-80
2022/11/30 09:42:05;;;;;;;30.58;16.40;;;4.60;99.90;;;;;;5021216;28;20026;-80
2022/11/30 09:45:01;;;;;;;28.55;16.27;;;4.60;99.90;;;;;;5035936;28;20389;-79
2022/11/30 09:48:14;;;;;;;28.65;14.82;;;4.60;99.50;;;;;;5032052;28;20030;-79
2022/11/30 09:50:42;;;;;;;26.80;15.85;;;4.50;99.50;;;;;;5049813;28;20068;-79
2022/11/30 09:53:37;;;;;;;30.98;16.30;;;4.40;99.30;;;;;;5049920;28;20039;-79
2022/11/30 09:56:14;;;;;;;27.27;15.27;;;4.40;99.50;;;;;;5040833;28;20029;-79
2022/11/30 09:58:47;;;;;;;29.30;15.63;;;4.40;99.80;;;;;;5040678;28;20092;-79
2022/11/30 10:01:19;;;;;;;26.45;15.10;;;4.50;99.90;;;;;;5043181;28;20162;-80
2022/11/30 10:03:45;;;;;;;25.77;15.10;;;4.60;99.90;;;;;;5045465;28;20045;-78
2022/11/30 10:06:25;;;;;;;28.25;15.35;;;4.60;99.90;;;;;;5042237;28;20108;-80
2022/11/30 10:08:59;;;;;;;22.63;12.77;;;4.60;99.90;;;;;;5042575;28;20029;-79
2022/11/30 10:11:48;;;;;;;28.30;15.15;;;4.70;99.90;;;;;;5043666;28;20021;-80
2022/11/30 10:14:33;;;;;;;22.42;13.55;;;4.80;99.50;;;;;;5024777;28;20029;-80
2022/11/30 10:17:16;;;;;;;21.08;12.57;;;4.90;99.50;;;;;;5022572;28;20006;-78
2022/11/30 10:20:21;;;;;;;27.70;15.75;;;5.00;99.40;;;;;;5006462;28;20037;-81
2022/11/30 10:22:57;;;;;;;26.48;14.88;;;5.10;98.90;;;;;;5000047;28;20041;-80
2022/11/30 10:25:41;;;;;;;24.02;14.35;;;5.10;98.70;;;;;;5047714;28;20092;-79
2022/11/30 10:28:11;;;;;;;22.60;14.45;;;5.10;98.70;;;;;;5047207;28;20046;-79
2022/11/30 10:30:36;;;;;;;25.52;14.70;;;5.20;98.30;;;;;;5054624;28;20052;-79
2022/11/30 10:33:21;;;;;;;25.42;13.77;;;5.20;97.30;;;;;;5056756;28;20041;-79
2022/11/30 10:36:02;;;;;;;21.73;13.55;;;5.10;97.40;;;;;;5056448;28;20033;-79
2022/11/30 10:38:32;;;;;;;26.63;14.68;;;5.00;97.60;;;;;;5051530;28;20025;-79
2022/11/30 10:41:02;;;;;;;25.90;14.43;;;5.00;97.20;;;;;;5041503;28;20033;-79
2022/11/30 10:43:37;;;;;;;28.70;15.23;;;4.90;97.50;;;;;;5041163;28;20459;-79
2022/11/30 10:46:03;;;;;;;29.45;15.30;;;4.90;97.10;;;;;;5040295;28;20033;-79
2022/11/30 10:48:59;;;;;;;24.33;14.10;;;4.80;97.10;;;;;;5041714;28;20029;-79
2022/11/30 10:51:26;;;;;;;22.90;13.05;;;4.70;97.50;;;;;;5043465;28;20367;-80
2022/11/30 10:53:52;;;;;;;22.80;12.60;;;4.70;97.10;;;;;;5040180;28;20055;-79
2022/11/30 10:56:17;;;;;;;21.38;12.07;;;4.70;97.10;;;;;;5040280;28;20033;-79
2022/11/30 10:58:58;;;;;;;20.33;11.57;;;4.70;96.90;;;;;;5038935;28;20474;-78
2022/11/30 11:01:32;;;;;;;21.17;11.90;;;4.70;97.60;;;;;;5039066;28;20038;-80
2022/11/30 11:04:24;;;;;;;21.65;11.55;;;4.80;97.90;;;;;;5037046;28;20088;-81
2022/11/30 11:07:08;;;;;;;22.90;11.68;;;4.90;96.50;;;;;;5040053;28;20040;-80
2022/11/30 11:09:45;;;;;;;20.73;11.40;;;4.90;96.40;;;;;;5040932;28;20017;-81
2022/11/30 11:12:15;;;;;;;18.90;10.77;;;4.90;96.70;;;;;;5039220;28;20028;-78
2022/11/30 11:18:53;;;;;;;13.55;9.40;;;4.90;95.90;;;;;;5064899;28;20048;-83
2022/11/30 11:28:07;;;;;;;15.75;8.85;;;4.80;96.30;;;;;;5193042;22;20061;-84
2022/11/30 11:38:08;;;;;;;23.40;13.80;;;4.90;96.30;;;;;;5044259;28;20052;-82
2022/11/30 11:44:14;;;;;;;29.13;14.65;;;4.90;96.30;;;;;;5065041;22;20044;-84
2022/11/30 11:47:28;;;;;;;29.90;15.98;;;4.90;96.60;;;;;;5008643;28;20061;-85
2022/11/30 12:14:59;;;;;;;25.02;14.93;;;4.80;96.90;;;;;;4339068;26;20033;-83
2022/11/30 12:18:04;;;;;;;26.67;16.15;;;4.70;97.40;;;;;;5022102;28;20101;-84
2022/11/30 12:20:52;;;;;;;24.33;14.13;;;4.60;97.30;;;;;;5037259;28;20029;-85
2022/11/30 12:23:44;;;;;;;26.23;15.05;;;4.70;97.80;;;;;;5034411;28;20038;-84
2022/11/30 12:26:30;;;;;;;26.80;14.30;;;4.70;97.30;;;;;;4991422;28;20034;-85
2022/11/30 12:29:18;;;;;;;26.83;14.75;;;4.70;97.80;;;;;;5037577;28;20124;-83
2022/11/30 12:31:55;;;;;;;23.83;13.88;;;4.80;97.90;;;;;;5037416;28;20088;-84
2022/11/30 12:34:55;;;;;;;25.55;14.65;;;4.90;97.50;;;;;;5040605;28;20052;-83
2022/11/30 12:37:42;;;;;;;25.08;14.68;;;4.90;96.70;;;;;;5041695;28;20013;-84
2022/11/30 12:40:45;;;;;;;25.65;15.02;;;4.80;96.70;;;;;;5058986;28;20041;-84
2022/11/30 12:43:48;;;;;;;26.83;14.23;;;4.80;96.80;;;;;;5041509;28;20053;-84
2022/11/30 12:46:35;;;;;;;26.52;14.90;;;4.70;96.80;;;;;;5054857;28;20036;-84
2022/11/30 12:49:25;;;;;;;27.02;14.57;;;4.70;96.70;;;;;;5041558;28;20021;-84
2022/11/30 12:52:03;;;;;;;24.58;13.68;;;4.60;97.00;;;;;;5041500;28;20033;-85
2022/11/30 12:54:38;;;;;;;24.50;12.60;;;4.60;97.40;;;;;;5041291;28;20033;-84
2022/11/30 12:57:16;;;;;;;27.65;13.55;;;4.60;97.10;;;;;;5041007;28;20049;-85
2022/11/30 12:59:49;;;;;;;22.65;12.15;;;4.60;97.00;;;;;;5058757;28;20033;-85
2022/11/30 13:02:48;;;;;;;22.77;13.68;;;4.60;97.00;;;;;;5057930;28;20128;-83
2022/11/30 13:05:26;;;;;;;23.77;13.73;;;4.70;97.30;;;;;;5056724;28;20068;-84
2022/11/30 13:08:02;;;;;;;24.23;13.15;;;4.70;97.00;;;;;;5039935;28;20020;-85
2022/11/30 13:10:56;;;;;;;23.38;13.30;;;4.70;97.30;;;;;;5057593;28;20017;-84
2022/11/30 13:14:02;;;;;;;20.02;11.18;;;4.70;97.10;;;;;;5039666;28;20021;-84
2022/11/30 13:17:03;;;;;;;25.13;12.18;;;4.80;96.30;;;;;;5048478;28;20066;-83
2022/11/30 13:19:38;;;;;;;22.23;11.48;;;4.70;96.20;;;;;;5034442;28;20041;-83
2022/11/30 13:22:21;;;;;;;20.83;11.07;;;4.80;96.40;;;;;;5056811;28;20048;-84
2022/11/30 13:25:41;;;;;;;20.23;12.25;;;4.90;96.50;;;;;;5036961;28;20085;-83
2022/11/30 13:28:48;;;;;;;19.17;11.18;;;5.00;96.10;;;;;;5001419;28;20013;-83
2022/11/30 13:31:22;;;;;;;20.30;10.65;;;5.00;95.50;;;;;;5039977;28;20022;-84
2022/11/30 13:33:56;;;;;;;18.65;10.13;;;5.00;95.60;;;;;;5040474;28;20045;-83
2022/11/30 13:36:38;;;;;;;22.00;12.20;;;5.00;95.70;;;;;;5058306;28;20107;-83
2022/11/30 13:39:13;;;;;;;23.07;12.47;;;5.00;95.40;;;;;;5056105;28;20120;-84
2022/11/30 13:41:41;;;;;;;20.35;11.70;;;5.00;96.00;;;;;;5056401;28;20065;-84
2022/11/30 13:44:39;;;;;;;22.13;12.57;;;5.00;96.40;;;;;;5040834;28;20021;-85
2022/11/30 13:47:25;;;;;;;21.63;12.32;;;5.10;96.40;;;;;;5039894;28;20009;-84